sensor_id;sensor_type;location;lat;lon;timestamp;P1;durP1;ratioP1;P2;durP2;ratioP2
34019;SDS011;20895;51.034;3.742;2023-08-06T00:00:15;10.10;;;7.60;;
34019;SDS011;20895;51.034;3.742;2023-08-06T00:02:40;10.52;;;6.85;;
34019;SDS011;20895;51.034;3.742;2023-08-06T00:05:05;12.75;;;8.27;;
34019;SDS011;20895;51.034;3.742;2023-08-06T00:07:31;9.07;;;7.55;;
34019;SDS011;20895;51.034;3.742;2023-08-06T00:09:57;12.77;;;8.48;;
34019;SDS011;20895;51.034;3.742;2023-08-06T00:12:22;11.68;;;7.88;;
34019;SDS011;20895;51.034;3.742;2023-08-06T00:14:51;11.60;;;7.90;;
34019;SDS011;20895;51.034;3.742;2023-08-06T00:17:16;15.25;;;9.70;;
34019;SDS011;20895;51.034;3.742;2023-08-06T00:19:42;10.15;;;8.63;;
34019;SDS011;20895;51.034;3.742;2023-08-06T00:22:07;11.80;;;8.25;;
34019;SDS011;20895;51.034;3.742;2023-08-06T00:24:33;9.05;;;8.15;;
34019;SDS011;20895;51.034;3.742;2023-08-06T00:26:58;11.48;;;8.23;;
34019;SDS011;20895;51.034;3.742;2023-08-06T00:29:23;11.02;;;8.15;;
34019;SDS011;20895;51.034;3.742;2023-08-06T00:31:48;13.77;;;8.98;;
34019;SDS011;20895;51.034;3.742;2023-08-06T00:34:13;12.13;;;8.55;;
34019;SDS011;20895;51.034;3.742;2023-08-06T00:36:39;15.40;;;8.55;;
34019;SDS011;20895;51.034;3.742;2023-08-06T00:39:04;12.30;;;7.60;;
34019;SDS011;20895;51.034;3.742;2023-08-06T00:41:29;7.60;;;6.60;;
34019;SDS011;20895;51.034;3.742;2023-08-06T00:43:54;9.35;;;5.85;;
34019;SDS011;20895;51.034;3.742;2023-08-06T00:46:20;11.75;;;5.30;;
34019;SDS011;20895;51.034;3.742;2023-08-06T00:48:45;11.45;;;5.47;;
34019;SDS011;20895;51.034;3.742;2023-08-06T00:51:11;11.77;;;5.20;;
34019;SDS011;20895;51.034;3.742;2023-08-06T00:53:39;8.55;;;5.03;;
34019;SDS011;20895;51.034;3.742;2023-08-06T00:56:05;10.30;;;4.45;;
34019;SDS011;20895;51.034;3.742;2023-08-06T00:58:31;14.05;;;3.30;;
34019;SDS011;20895;51.034;3.742;2023-08-06T01:00:57;11.90;;;5.30;;
34019;SDS011;20895;51.034;3.742;2023-08-06T01:03:22;8.40;;;3.05;;
34019;SDS011;20895;51.034;3.742;2023-08-06T01:05:47;13.05;;;2.83;;
34019;SDS011;20895;51.034;3.742;2023-08-06T01:15:29;6.13;;;3.67;;
34019;SDS011;20895;51.034;3.742;2023-08-06T01:17:56;6.68;;;4.45;;
34019;SDS011;20895;51.034;3.742;2023-08-06T01:20:22;7.82;;;4.90;;
34019;SDS011;20895;51.034;3.742;2023-08-06T01:22:47;8.23;;;5.25;;
34019;SDS011;20895;51.034;3.742;2023-08-06T01:25:13;13.20;;;5.57;;
34019;SDS011;20895;51.034;3.742;2023-08-06T01:30:12;9.23;;;5.40;;
34019;SDS011;20895;51.034;3.742;2023-08-06T01:32:39;8.93;;;7.60;;
34019;SDS011;20895;51.034;3.742;2023-08-06T01:35:06;11.20;;;7.90;;
34019;SDS011;20895;51.034;3.742;2023-08-06T01:37:32;10.10;;;8.75;;
34019;SDS011;20895;51.034;3.742;2023-08-06T01:39:57;12.88;;;9.63;;
34019;SDS011;20895;51.034;3.742;2023-08-06T01:42:22;12.00;;;10.60;;
34019;SDS011;20895;51.034;3.742;2023-08-06T01:44:48;13.77;;;10.77;;
34019;SDS011;20895;51.034;3.742;2023-08-06T01:47:13;13.23;;;9.65;;
34019;SDS011;20895;51.034;3.742;2023-08-06T01:49:38;12.25;;;10.57;;
34019;SDS011;20895;51.034;3.742;2023-08-06T01:52:03;14.52;;;11.05;;
34019;SDS011;20895;51.034;3.742;2023-08-06T01:54:29;14.00;;;10.35;;
34019;SDS011;20895;51.034;3.742;2023-08-06T01:56:54;11.88;;;7.90;;
34019;SDS011;20895;51.034;3.742;2023-08-06T01:59:19;8.45;;;7.57;;
34019;SDS011;20895;51.034;3.742;2023-08-06T02:01:44;9.70;;;7.68;;
34019;SDS011;20895;51.034;3.742;2023-08-06T02:04:10;7.75;;;6.72;;
34019;SDS011;20895;51.034;3.742;2023-08-06T02:06:35;7.78;;;5.63;;
34019;SDS011;20895;51.034;3.742;2023-08-06T02:09:00;8.05;;;6.05;;
34019;SDS011;20895;51.034;3.742;2023-08-06T02:11:25;6.53;;;4.78;;
34019;SDS011;20895;51.034;3.742;2023-08-06T02:13:51;7.85;;;4.57;;
34019;SDS011;20895;51.034;3.742;2023-08-06T02:16:16;6.50;;;2.80;;
34019;SDS011;20895;51.034;3.742;2023-08-06T02:18:41;6.43;;;3.05;;
34019;SDS011;20895;51.034;3.742;2023-08-06T02:21:06;4.30;;;2.22;;
34019;SDS011;20895;51.034;3.742;2023-08-06T02:23:32;6.97;;;2.28;;
34019;SDS011;20895;51.034;3.742;2023-08-06T02:25:58;5.45;;;1.85;;
34019;SDS011;20895;51.034;3.742;2023-08-06T02:28:23;4.53;;;1.67;;
34019;SDS011;20895;51.034;3.742;2023-08-06T02:30:51;1.90;;;1.70;;
34019;SDS011;20895;51.034;3.742;2023-08-06T02:33:17;4.95;;;1.88;;
34019;SDS011;20895;51.034;3.742;2023-08-06T02:35:42;9.05;;;2.90;;
34019;SDS011;20895;51.034;3.742;2023-08-06T02:38:07;7.30;;;2.10;;
34019;SDS011;20895;51.034;3.742;2023-08-06T02:40:33;8.88;;;3.28;;
34019;SDS011;20895;51.034;3.742;2023-08-06T02:42:58;7.72;;;2.38;;
34019;SDS011;20895;51.034;3.742;2023-08-06T02:45:23;6.72;;;2.35;;
34019;SDS011;20895;51.034;3.742;2023-08-06T02:47:48;7.05;;;2.60;;
34019;SDS011;20895;51.034;3.742;2023-08-06T02:50:17;8.02;;;2.67;;
34019;SDS011;20895;51.034;3.742;2023-08-06T02:52:42;3.83;;;1.83;;
34019;SDS011;20895;51.034;3.742;2023-08-06T02:55:07;7.45;;;2.22;;
34019;SDS011;20895;51.034;3.742;2023-08-06T02:57:32;7.65;;;2.53;;
34019;SDS011;20895;51.034;3.742;2023-08-06T02:59:58;8.65;;;2.88;;
34019;SDS011;20895;51.034;3.742;2023-08-06T03:02:23;5.45;;;2.50;;
34019;SDS011;20895;51.034;3.742;2023-08-06T03:04:48;8.02;;;3.25;;
34019;SDS011;20895;51.034;3.742;2023-08-06T03:07:14;6.93;;;3.15;;
34019;SDS011;20895;51.034;3.742;2023-08-06T03:09:39;11.63;;;3.72;;
34019;SDS011;20895;51.034;3.742;2023-08-06T03:12:04;9.20;;;3.75;;
34019;SDS011;20895;51.034;3.742;2023-08-06T03:14:30;8.18;;;3.50;;
34019;SDS011;20895;51.034;3.742;2023-08-06T03:16:55;9.20;;;4.30;;
34019;SDS011;20895;51.034;3.742;2023-08-06T03:19:20;9.07;;;3.45;;
34019;SDS011;20895;51.034;3.742;2023-08-06T03:21:45;9.82;;;4.05;;
34019;SDS011;20895;51.034;3.742;2023-08-06T03:24:11;8.85;;;4.40;;
34019;SDS011;20895;51.034;3.742;2023-08-06T03:26:36;10.63;;;4.35;;
34019;SDS011;20895;51.034;3.742;2023-08-06T03:29:01;9.70;;;4.47;;
34019;SDS011;20895;51.034;3.742;2023-08-06T03:31:26;7.75;;;4.57;;
34019;SDS011;20895;51.034;3.742;2023-08-06T03:33:52;11.40;;;4.85;;
34019;SDS011;20895;51.034;3.742;2023-08-06T03:36:17;14.73;;;5.47;;
34019;SDS011;20895;51.034;3.742;2023-08-06T03:38:42;8.57;;;5.38;;
34019;SDS011;20895;51.034;3.742;2023-08-06T03:41:07;8.77;;;4.82;;
34019;SDS011;20895;51.034;3.742;2023-08-06T03:43:32;13.05;;;6.00;;
34019;SDS011;20895;51.034;3.742;2023-08-06T03:45:58;9.30;;;4.30;;
34019;SDS011;20895;51.034;3.742;2023-08-06T03:48:23;8.95;;;4.70;;
34019;SDS011;20895;51.034;3.742;2023-08-06T03:50:48;13.80;;;4.95;;
34019;SDS011;20895;51.034;3.742;2023-08-06T03:53:13;10.90;;;5.25;;
34019;SDS011;20895;51.034;3.742;2023-08-06T03:55:39;9.90;;;3.95;;
34019;SDS011;20895;51.034;3.742;2023-08-06T03:58:04;12.65;;;4.65;;
34019;SDS011;20895;51.034;3.742;2023-08-06T04:00:29;14.35;;;4.90;;
34019;SDS011;20895;51.034;3.742;2023-08-06T04:02:54;7.40;;;3.60;;
34019;SDS011;20895;51.034;3.742;2023-08-06T04:05:20;8.80;;;3.33;;
34019;SDS011;20895;51.034;3.742;2023-08-06T04:07:45;7.75;;;2.85;;
34019;SDS011;20895;51.034;3.742;2023-08-06T04:10:10;9.52;;;3.35;;
34019;SDS011;20895;51.034;3.742;2023-08-06T04:12:36;9.02;;;2.70;;
34019;SDS011;20895;51.034;3.742;2023-08-06T04:15:03;9.85;;;3.25;;
34019;SDS011;20895;51.034;3.742;2023-08-06T04:17:28;8.75;;;3.55;;
34019;SDS011;20895;51.034;3.742;2023-08-06T04:19:54;9.65;;;3.05;;
34019;SDS011;20895;51.034;3.742;2023-08-06T04:22:19;9.80;;;2.58;;
34019;SDS011;20895;51.034;3.742;2023-08-06T04:24:45;13.68;;;3.75;;
34019;SDS011;20895;51.034;3.742;2023-08-06T04:27:11;4.95;;;2.70;;
34019;SDS011;20895;51.034;3.742;2023-08-06T04:29:36;14.77;;;4.00;;
34019;SDS011;20895;51.034;3.742;2023-08-06T04:32:03;11.35;;;3.65;;
34019;SDS011;20895;51.034;3.742;2023-08-06T04:34:28;9.88;;;2.80;;
34019;SDS011;20895;51.034;3.742;2023-08-06T04:36:54;8.27;;;2.65;;
34019;SDS011;20895;51.034;3.742;2023-08-06T04:39:19;9.30;;;2.90;;
34019;SDS011;20895;51.034;3.742;2023-08-06T04:41:44;5.85;;;2.50;;
34019;SDS011;20895;51.034;3.742;2023-08-06T04:44:09;11.55;;;2.53;;
34019;SDS011;20895;51.034;3.742;2023-08-06T04:46:34;9.02;;;3.47;;
34019;SDS011;20895;51.034;3.742;2023-08-06T04:49:00;7.88;;;2.85;;
34019;SDS011;20895;51.034;3.742;2023-08-06T04:51:25;6.35;;;2.58;;
34019;SDS011;20895;51.034;3.742;2023-08-06T04:53:50;6.05;;;2.70;;
34019;SDS011;20895;51.034;3.742;2023-08-06T04:56:15;7.03;;;2.50;;
34019;SDS011;20895;51.034;3.742;2023-08-06T04:58:41;8.27;;;2.63;;
34019;SDS011;20895;51.034;3.742;2023-08-06T05:01:06;8.82;;;3.00;;
34019;SDS011;20895;51.034;3.742;2023-08-06T05:03:31;8.98;;;3.67;;
34019;SDS011;20895;51.034;3.742;2023-08-06T05:05:56;8.38;;;2.53;;
34019;SDS011;20895;51.034;3.742;2023-08-06T05:08:22;8.57;;;3.35;;
34019;SDS011;20895;51.034;3.742;2023-08-06T05:10:47;6.43;;;2.83;;
34019;SDS011;20895;51.034;3.742;2023-08-06T05:13:12;5.70;;;2.88;;
34019;SDS011;20895;51.034;3.742;2023-08-06T05:15:38;6.22;;;2.67;;
34019;SDS011;20895;51.034;3.742;2023-08-06T05:18:04;6.47;;;2.70;;
34019;SDS011;20895;51.034;3.742;2023-08-06T05:20:30;10.77;;;3.08;;
34019;SDS011;20895;51.034;3.742;2023-08-06T05:22:55;5.53;;;2.72;;
34019;SDS011;20895;51.034;3.742;2023-08-06T05:25:20;7.05;;;2.92;;
34019;SDS011;20895;51.034;3.742;2023-08-06T05:27:46;11.18;;;3.88;;
34019;SDS011;20895;51.034;3.742;2023-08-06T05:30:11;7.53;;;2.95;;
34019;SDS011;20895;51.034;3.742;2023-08-06T05:32:36;10.15;;;3.78;;
34019;SDS011;20895;51.034;3.742;2023-08-06T05:35:01;6.82;;;3.28;;
34019;SDS011;20895;51.034;3.742;2023-08-06T05:37:27;6.10;;;2.72;;
34019;SDS011;20895;51.034;3.742;2023-08-06T05:39:53;10.30;;;4.32;;
34019;SDS011;20895;51.034;3.742;2023-08-06T05:42:18;7.90;;;3.45;;
34019;SDS011;20895;51.034;3.742;2023-08-06T05:44:43;9.02;;;3.17;;
34019;SDS011;20895;51.034;3.742;2023-08-06T05:47:08;7.53;;;3.03;;
34019;SDS011;20895;51.034;3.742;2023-08-06T05:49:34;8.70;;;2.50;;
34019;SDS011;20895;51.034;3.742;2023-08-06T05:51:59;7.10;;;3.50;;
34019;SDS011;20895;51.034;3.742;2023-08-06T05:54:24;8.07;;;2.53;;
34019;SDS011;20895;51.034;3.742;2023-08-06T05:56:50;6.88;;;2.20;;
34019;SDS011;20895;51.034;3.742;2023-08-06T05:59:15;6.85;;;2.15;;
34019;SDS011;20895;51.034;3.742;2023-08-06T06:01:40;7.20;;;1.90;;
34019;SDS011;20895;51.034;3.742;2023-08-06T06:04:05;9.38;;;2.47;;
34019;SDS011;20895;51.034;3.742;2023-08-06T06:06:31;3.63;;;1.15;;
34019;SDS011;20895;51.034;3.742;2023-08-06T06:08:56;6.88;;;1.40;;
34019;SDS011;20895;51.034;3.742;2023-08-06T06:11:21;9.95;;;2.65;;
34019;SDS011;20895;51.034;3.742;2023-08-06T06:13:49;4.53;;;1.60;;
34019;SDS011;20895;51.034;3.742;2023-08-06T06:16:14;9.90;;;2.13;;
34019;SDS011;20895;51.034;3.742;2023-08-06T06:18:39;6.47;;;1.80;;
34019;SDS011;20895;51.034;3.742;2023-08-06T06:21:05;5.65;;;1.75;;
34019;SDS011;20895;51.034;3.742;2023-08-06T06:23:30;5.63;;;1.42;;
34019;SDS011;20895;51.034;3.742;2023-08-06T06:25:55;4.45;;;1.65;;
34019;SDS011;20895;51.034;3.742;2023-08-06T06:28:21;5.85;;;1.52;;
34019;SDS011;20895;51.034;3.742;2023-08-06T06:30:46;6.05;;;1.63;;
34019;SDS011;20895;51.034;3.742;2023-08-06T06:33:11;10.38;;;2.60;;
34019;SDS011;20895;51.034;3.742;2023-08-06T06:35:37;5.35;;;2.28;;
34019;SDS011;20895;51.034;3.742;2023-08-06T06:38:02;6.25;;;1.77;;
34019;SDS011;20895;51.034;3.742;2023-08-06T06:40:27;10.88;;;2.70;;
34019;SDS011;20895;51.034;3.742;2023-08-06T06:42:53;9.40;;;2.45;;
34019;SDS011;20895;51.034;3.742;2023-08-06T06:45:18;5.78;;;2.35;;
34019;SDS011;20895;51.034;3.742;2023-08-06T06:47:43;9.15;;;2.00;;
34019;SDS011;20895;51.034;3.742;2023-08-06T06:50:08;8.40;;;1.80;;
34019;SDS011;20895;51.034;3.742;2023-08-06T06:52:34;7.32;;;2.20;;
34019;SDS011;20895;51.034;3.742;2023-08-06T06:54:59;11.95;;;2.08;;
34019;SDS011;20895;51.034;3.742;2023-08-06T06:57:24;11.63;;;2.05;;
34019;SDS011;20895;51.034;3.742;2023-08-06T06:59:50;5.18;;;1.90;;
34019;SDS011;20895;51.034;3.742;2023-08-06T07:02:15;10.65;;;2.85;;
34019;SDS011;20895;51.034;3.742;2023-08-06T07:04:40;5.00;;;2.00;;
34019;SDS011;20895;51.034;3.742;2023-08-06T07:07:05;5.97;;;2.00;;
34019;SDS011;20895;51.034;3.742;2023-08-06T07:09:30;6.95;;;1.88;;
34019;SDS011;20895;51.034;3.742;2023-08-06T07:11:56;6.60;;;1.52;;
34019;SDS011;20895;51.034;3.742;2023-08-06T07:14:21;8.63;;;1.50;;
34019;SDS011;20895;51.034;3.742;2023-08-06T07:16:46;10.32;;;2.45;;
34019;SDS011;20895;51.034;3.742;2023-08-06T07:19:12;5.00;;;1.38;;
34019;SDS011;20895;51.034;3.742;2023-08-06T07:21:37;10.48;;;2.53;;
34019;SDS011;20895;51.034;3.742;2023-08-06T07:24:02;7.32;;;2.22;;
34019;SDS011;20895;51.034;3.742;2023-08-06T07:26:27;5.90;;;1.42;;
34019;SDS011;20895;51.034;3.742;2023-08-06T07:28:53;5.75;;;1.85;;
34019;SDS011;20895;51.034;3.742;2023-08-06T07:31:18;6.97;;;1.50;;
34019;SDS011;20895;51.034;3.742;2023-08-06T07:33:43;6.85;;;2.10;;
34019;SDS011;20895;51.034;3.742;2023-08-06T07:36:12;9.23;;;2.03;;
34019;SDS011;20895;51.034;3.742;2023-08-06T07:38:38;7.05;;;1.60;;
34019;SDS011;20895;51.034;3.742;2023-08-06T07:41:04;4.95;;;2.10;;
34019;SDS011;20895;51.034;3.742;2023-08-06T07:43:29;7.60;;;1.35;;
34019;SDS011;20895;51.034;3.742;2023-08-06T07:45:57;7.75;;;1.67;;
34019;SDS011;20895;51.034;3.742;2023-08-06T07:48:22;9.30;;;2.00;;
34019;SDS011;20895;51.034;3.742;2023-08-06T07:50:51;5.78;;;1.70;;
34019;SDS011;20895;51.034;3.742;2023-08-06T07:53:18;5.43;;;1.65;;
34019;SDS011;20895;51.034;3.742;2023-08-06T07:55:43;4.53;;;1.67;;
34019;SDS011;20895;51.034;3.742;2023-08-06T07:58:12;5.68;;;1.50;;
34019;SDS011;20895;51.034;3.742;2023-08-06T08:00:37;4.78;;;1.38;;
34019;SDS011;20895;51.034;3.742;2023-08-06T08:03:03;10.05;;;2.05;;
34019;SDS011;20895;51.034;3.742;2023-08-06T08:05:29;5.75;;;1.42;;
34019;SDS011;20895;51.034;3.742;2023-08-06T08:07:54;7.10;;;1.70;;
34019;SDS011;20895;51.034;3.742;2023-08-06T08:10:19;10.55;;;2.75;;
34019;SDS011;20895;51.034;3.742;2023-08-06T08:12:45;8.40;;;1.50;;
34019;SDS011;20895;51.034;3.742;2023-08-06T08:15:12;8.95;;;1.63;;
34019;SDS011;20895;51.034;3.742;2023-08-06T08:17:37;6.25;;;1.65;;
34019;SDS011;20895;51.034;3.742;2023-08-06T08:20:03;9.27;;;2.13;;
34019;SDS011;20895;51.034;3.742;2023-08-06T08:22:28;6.88;;;1.60;;
34019;SDS011;20895;51.034;3.742;2023-08-06T08:24:53;14.93;;;2.88;;
34019;SDS011;20895;51.034;3.742;2023-08-06T08:27:19;8.40;;;2.10;;
34019;SDS011;20895;51.034;3.742;2023-08-06T08:29:44;7.10;;;2.42;;
34019;SDS011;20895;51.034;3.742;2023-08-06T08:32:09;9.63;;;2.03;;
34019;SDS011;20895;51.034;3.742;2023-08-06T08:34:35;9.07;;;1.75;;
34019;SDS011;20895;51.034;3.742;2023-08-06T08:37:00;9.00;;;2.05;;
34019;SDS011;20895;51.034;3.742;2023-08-06T08:39:26;13.68;;;2.47;;
34019;SDS011;20895;51.034;3.742;2023-08-06T08:41:51;10.55;;;3.33;;
34019;SDS011;20895;51.034;3.742;2023-08-06T08:44:17;6.93;;;2.75;;
34019;SDS011;20895;51.034;3.742;2023-08-06T08:46:43;10.88;;;2.42;;
34019;SDS011;20895;51.034;3.742;2023-08-06T08:49:09;4.95;;;1.85;;
34019;SDS011;20895;51.034;3.742;2023-08-06T08:51:34;10.40;;;2.38;;
34019;SDS011;20895;51.034;3.742;2023-08-06T08:54:02;8.68;;;2.42;;
34019;SDS011;20895;51.034;3.742;2023-08-06T08:56:28;6.32;;;2.75;;
34019;SDS011;20895;51.034;3.742;2023-08-06T08:58:53;8.65;;;2.05;;
34019;SDS011;20895;51.034;3.742;2023-08-06T09:01:20;7.45;;;1.98;;
34019;SDS011;20895;51.034;3.742;2023-08-06T09:03:46;6.95;;;1.73;;
34019;SDS011;20895;51.034;3.742;2023-08-06T09:06:12;10.57;;;1.67;;
34019;SDS011;20895;51.034;3.742;2023-08-06T09:08:39;10.70;;;1.77;;
34019;SDS011;20895;51.034;3.742;2023-08-06T09:11:07;8.07;;;1.95;;
34019;SDS011;20895;51.034;3.742;2023-08-06T09:13:34;11.50;;;2.33;;
34019;SDS011;20895;51.034;3.742;2023-08-06T09:16:00;6.93;;;1.70;;
34019;SDS011;20895;51.034;3.742;2023-08-06T09:18:26;6.13;;;1.67;;
34019;SDS011;20895;51.034;3.742;2023-08-06T09:20:52;5.40;;;1.88;;
34019;SDS011;20895;51.034;3.742;2023-08-06T09:23:18;6.78;;;1.73;;
34019;SDS011;20895;51.034;3.742;2023-08-06T09:25:45;4.97;;;1.90;;
34019;SDS011;20895;51.034;3.742;2023-08-06T09:28:10;9.30;;;1.70;;
34019;SDS011;20895;51.034;3.742;2023-08-06T09:30:36;6.63;;;2.10;;
34019;SDS011;20895;51.034;3.742;2023-08-06T09:33:02;7.55;;;2.08;;
34019;SDS011;20895;51.034;3.742;2023-08-06T09:35:28;7.40;;;1.85;;
34019;SDS011;20895;51.034;3.742;2023-08-06T09:37:53;7.18;;;2.13;;
34019;SDS011;20895;51.034;3.742;2023-08-06T09:40:28;9.98;;;2.28;;
34019;SDS011;20895;51.034;3.742;2023-08-06T09:42:54;11.25;;;1.90;;
34019;SDS011;20895;51.034;3.742;2023-08-06T09:45:20;13.68;;;2.50;;
34019;SDS011;20895;51.034;3.742;2023-08-06T09:47:47;7.13;;;3.08;;
34019;SDS011;20895;51.034;3.742;2023-08-06T09:50:16;10.32;;;2.33;;
34019;SDS011;20895;51.034;3.742;2023-08-06T09:52:42;8.43;;;2.55;;
34019;SDS011;20895;51.034;3.742;2023-08-06T09:55:07;10.40;;;2.20;;
34019;SDS011;20895;51.034;3.742;2023-08-06T09:57:33;5.38;;;2.00;;
34019;SDS011;20895;51.034;3.742;2023-08-06T09:59:58;9.18;;;3.30;;
34019;SDS011;20895;51.034;3.742;2023-08-06T10:02:24;9.63;;;2.80;;
34019;SDS011;20895;51.034;3.742;2023-08-06T10:04:50;5.85;;;1.75;;
34019;SDS011;20895;51.034;3.742;2023-08-06T10:07:16;11.05;;;2.25;;
34019;SDS011;20895;51.034;3.742;2023-08-06T10:09:43;8.98;;;2.65;;
34019;SDS011;20895;51.034;3.742;2023-08-06T10:12:08;11.82;;;2.65;;
34019;SDS011;20895;51.034;3.742;2023-08-06T10:14:35;6.65;;;2.33;;
34019;SDS011;20895;51.034;3.742;2023-08-06T10:17:02;6.07;;;2.42;;
34019;SDS011;20895;51.034;3.742;2023-08-06T10:19:27;6.72;;;1.60;;
34019;SDS011;20895;51.034;3.742;2023-08-06T10:22:13;8.60;;;1.88;;
34019;SDS011;20895;51.034;3.742;2023-08-06T10:24:48;5.72;;;1.65;;
34019;SDS011;20895;51.034;3.742;2023-08-06T10:27:19;7.32;;;1.77;;
34019;SDS011;20895;51.034;3.742;2023-08-06T10:29:44;5.43;;;1.83;;
34019;SDS011;20895;51.034;3.742;2023-08-06T10:32:09;3.80;;;1.60;;
34019;SDS011;20895;51.034;3.742;2023-08-06T10:37:20;8.05;;;2.67;;
34019;SDS011;20895;51.034;3.742;2023-08-06T10:39:49;3.25;;;1.40;;
34019;SDS011;20895;51.034;3.742;2023-08-06T10:42:22;8.27;;;1.58;;
34019;SDS011;20895;51.034;3.742;2023-08-06T10:47:37;6.13;;;1.88;;
34019;SDS011;20895;51.034;3.742;2023-08-06T10:50:03;5.55;;;1.98;;
34019;SDS011;20895;51.034;3.742;2023-08-06T10:52:28;7.35;;;1.75;;
34019;SDS011;20895;51.034;3.742;2023-08-06T10:54:54;8.35;;;1.98;;
34019;SDS011;20895;51.034;3.742;2023-08-06T10:57:20;8.68;;;1.83;;
34019;SDS011;20895;51.034;3.742;2023-08-06T10:59:45;5.93;;;1.70;;
34019;SDS011;20895;51.034;3.742;2023-08-06T11:02:10;6.75;;;2.10;;
34019;SDS011;20895;51.034;3.742;2023-08-06T11:04:35;8.82;;;2.92;;
34019;SDS011;20895;51.034;3.742;2023-08-06T11:07:01;7.82;;;2.53;;
34019;SDS011;20895;51.034;3.742;2023-08-06T11:09:26;9.63;;;2.10;;
34019;SDS011;20895;51.034;3.742;2023-08-06T11:11:51;6.00;;;2.70;;
34019;SDS011;20895;51.034;3.742;2023-08-06T11:14:17;8.13;;;1.98;;
34019;SDS011;20895;51.034;3.742;2023-08-06T11:16:42;4.78;;;1.42;;
34019;SDS011;20895;51.034;3.742;2023-08-06T11:19:07;10.43;;;1.80;;
34019;SDS011;20895;51.034;3.742;2023-08-06T11:21:33;9.45;;;1.92;;
34019;SDS011;20895;51.034;3.742;2023-08-06T11:23:58;7.35;;;1.83;;
34019;SDS011;20895;51.034;3.742;2023-08-06T11:26:23;6.90;;;1.60;;
34019;SDS011;20895;51.034;3.742;2023-08-06T11:28:49;7.45;;;2.53;;
34019;SDS011;20895;51.034;3.742;2023-08-06T11:31:23;7.93;;;2.47;;
34019;SDS011;20895;51.034;3.742;2023-08-06T11:33:52;6.75;;;2.25;;
34019;SDS011;20895;51.034;3.742;2023-08-06T11:36:28;11.35;;;3.00;;
34019;SDS011;20895;51.034;3.742;2023-08-06T11:38:53;7.82;;;2.60;;
34019;SDS011;20895;51.034;3.742;2023-08-06T11:41:18;5.55;;;1.80;;
34019;SDS011;20895;51.034;3.742;2023-08-06T11:43:45;8.15;;;3.85;;
34019;SDS011;20895;51.034;3.742;2023-08-06T11:46:11;11.48;;;2.33;;
34019;SDS011;20895;51.034;3.742;2023-08-06T11:48:52;4.93;;;1.55;;
34019;SDS011;20895;51.034;3.742;2023-08-06T11:51:18;4.93;;;1.95;;
34019;SDS011;20895;51.034;3.742;2023-08-06T11:53:50;6.40;;;1.65;;
34019;SDS011;20895;51.034;3.742;2023-08-06T11:56:16;10.70;;;3.78;;
34019;SDS011;20895;51.034;3.742;2023-08-06T11:58:42;4.82;;;1.90;;
34019;SDS011;20895;51.034;3.742;2023-08-06T12:01:07;6.18;;;2.03;;
34019;SDS011;20895;51.034;3.742;2023-08-06T12:03:32;3.22;;;1.23;;
34019;SDS011;20895;51.034;3.742;2023-08-06T12:05:58;5.32;;;1.48;;
34019;SDS011;20895;51.034;3.742;2023-08-06T12:08:26;7.68;;;2.35;;
34019;SDS011;20895;51.034;3.742;2023-08-06T12:10:51;8.90;;;2.00;;
34019;SDS011;20895;51.034;3.742;2023-08-06T12:13:18;10.48;;;2.28;;
34019;SDS011;20895;51.034;3.742;2023-08-06T12:15:44;8.18;;;1.95;;
34019;SDS011;20895;51.034;3.742;2023-08-06T12:18:09;7.82;;;1.83;;
34019;SDS011;20895;51.034;3.742;2023-08-06T12:20:35;6.97;;;1.85;;
34019;SDS011;20895;51.034;3.742;2023-08-06T12:23:00;6.15;;;1.75;;
34019;SDS011;20895;51.034;3.742;2023-08-06T12:25:25;6.80;;;1.60;;
34019;SDS011;20895;51.034;3.742;2023-08-06T12:27:51;8.27;;;2.15;;
34019;SDS011;20895;51.034;3.742;2023-08-06T12:30:16;9.35;;;2.22;;
34019;SDS011;20895;51.034;3.742;2023-08-06T12:32:41;6.10;;;1.92;;
34019;SDS011;20895;51.034;3.742;2023-08-06T12:35:07;4.75;;;1.60;;
34019;SDS011;20895;51.034;3.742;2023-08-06T12:37:32;4.57;;;1.77;;
34019;SDS011;20895;51.034;3.742;2023-08-06T12:39:58;8.50;;;3.10;;
34019;SDS011;20895;51.034;3.742;2023-08-06T12:42:23;5.53;;;1.33;;
34019;SDS011;20895;51.034;3.742;2023-08-06T12:44:49;4.57;;;1.70;;
34019;SDS011;20895;51.034;3.742;2023-08-06T12:47:15;5.45;;;1.38;;
34019;SDS011;20895;51.034;3.742;2023-08-06T12:49:41;4.50;;;1.50;;
34019;SDS011;20895;51.034;3.742;2023-08-06T12:52:06;6.78;;;1.70;;
34019;SDS011;20895;51.034;3.742;2023-08-06T12:54:32;11.25;;;1.52;;
34019;SDS011;20895;51.034;3.742;2023-08-06T12:57:04;7.72;;;2.08;;
34019;SDS011;20895;51.034;3.742;2023-08-06T12:59:30;3.65;;;1.30;;
34019;SDS011;20895;51.034;3.742;2023-08-06T13:01:55;5.85;;;1.73;;
34019;SDS011;20895;51.034;3.742;2023-08-06T13:04:20;5.60;;;1.75;;
34019;SDS011;20895;51.034;3.742;2023-08-06T13:06:45;7.90;;;1.70;;
34019;SDS011;20895;51.034;3.742;2023-08-06T13:09:11;4.80;;;1.60;;
34019;SDS011;20895;51.034;3.742;2023-08-06T13:11:37;10.98;;;1.90;;
34019;SDS011;20895;51.034;3.742;2023-08-06T13:16:31;6.38;;;1.50;;
34019;SDS011;20895;51.034;3.742;2023-08-06T13:18:56;11.43;;;2.55;;
34019;SDS011;20895;51.034;3.742;2023-08-06T13:21:22;10.88;;;3.38;;
34019;SDS011;20895;51.034;3.742;2023-08-06T13:23:47;5.25;;;2.22;;
34019;SDS011;20895;51.034;3.742;2023-08-06T13:26:12;4.82;;;2.10;;
34019;SDS011;20895;51.034;3.742;2023-08-06T13:28:38;6.15;;;1.70;;
34019;SDS011;20895;51.034;3.742;2023-08-06T13:31:03;6.70;;;1.60;;
34019;SDS011;20895;51.034;3.742;2023-08-06T13:33:28;7.22;;;2.03;;
34019;SDS011;20895;51.034;3.742;2023-08-06T13:35:54;6.80;;;1.38;;
34019;SDS011;20895;51.034;3.742;2023-08-06T13:38:19;5.78;;;1.63;;
34019;SDS011;20895;51.034;3.742;2023-08-06T13:40:44;3.88;;;1.70;;
34019;SDS011;20895;51.034;3.742;2023-08-06T13:43:11;7.20;;;1.33;;
34019;SDS011;20895;51.034;3.742;2023-08-06T13:45:36;9.90;;;4.07;;
34019;SDS011;20895;51.034;3.742;2023-08-06T13:48:03;7.63;;;1.88;;
34019;SDS011;20895;51.034;3.742;2023-08-06T13:50:28;6.22;;;1.63;;
34019;SDS011;20895;51.034;3.742;2023-08-06T13:52:54;5.82;;;1.90;;
34019;SDS011;20895;51.034;3.742;2023-08-06T13:55:20;4.93;;;1.90;;
34019;SDS011;20895;51.034;3.742;2023-08-06T13:57:45;5.25;;;2.00;;
34019;SDS011;20895;51.034;3.742;2023-08-06T14:00:11;10.68;;;1.85;;
34019;SDS011;20895;51.034;3.742;2023-08-06T14:02:36;8.27;;;3.03;;
34019;SDS011;20895;51.034;3.742;2023-08-06T14:05:02;10.18;;;2.42;;
34019;SDS011;20895;51.034;3.742;2023-08-06T14:07:27;5.30;;;2.03;;
34019;SDS011;20895;51.034;3.742;2023-08-06T14:09:52;5.80;;;1.88;;
34019;SDS011;20895;51.034;3.742;2023-08-06T14:12:17;5.72;;;1.77;;
34019;SDS011;20895;51.034;3.742;2023-08-06T14:14:43;13.23;;;4.05;;
34019;SDS011;20895;51.034;3.742;2023-08-06T14:17:08;5.90;;;1.77;;
34019;SDS011;20895;51.034;3.742;2023-08-06T14:19:33;4.65;;;2.22;;
34019;SDS011;20895;51.034;3.742;2023-08-06T14:21:58;4.93;;;2.13;;
34019;SDS011;20895;51.034;3.742;2023-08-06T14:24:24;4.68;;;1.63;;
34019;SDS011;20895;51.034;3.742;2023-08-06T14:26:49;6.93;;;2.63;;
34019;SDS011;20895;51.034;3.742;2023-08-06T14:29:14;7.93;;;1.85;;
34019;SDS011;20895;51.034;3.742;2023-08-06T14:31:40;7.13;;;1.80;;
34019;SDS011;20895;51.034;3.742;2023-08-06T14:34:05;6.45;;;1.98;;
34019;SDS011;20895;51.034;3.742;2023-08-06T14:36:30;2.42;;;1.48;;
34019;SDS011;20895;51.034;3.742;2023-08-06T14:38:56;6.25;;;1.83;;
34019;SDS011;20895;51.034;3.742;2023-08-06T14:41:21;4.32;;;1.67;;
34019;SDS011;20895;51.034;3.742;2023-08-06T14:43:46;6.97;;;1.77;;
34019;SDS011;20895;51.034;3.742;2023-08-06T14:46:11;4.22;;;1.98;;
34019;SDS011;20895;51.034;3.742;2023-08-06T14:48:37;4.38;;;1.50;;
34019;SDS011;20895;51.034;3.742;2023-08-06T14:51:02;6.22;;;1.70;;
34019;SDS011;20895;51.034;3.742;2023-08-06T14:53:28;4.30;;;1.55;;